sensor_id;sensor_type;location;lat;lon;timestamp;pressure;altitude;pressure_sealevel;temperature;humidity
28701;BME280;15877;52.344;16.790;2023-07-24T00:01:29;99842.55;;;21.99;52.39
28701;BME280;15877;52.344;16.790;2023-07-24T00:04:04;99844.21;;;21.93;52.29
28701;BME280;15877;52.344;16.790;2023-07-24T00:06:54;99840.86;;;21.91;52.35
28701;BME280;15877;52.344;16.790;2023-07-24T00:09:27;99839.70;;;21.85;53.16
28701;BME280;15877;52.344;16.790;2023-07-24T00:12:01;99834.20;;;21.81;53.32
28701;BME280;15877;52.344;16.790;2023-07-24T00:14:36;99819.54;;;21.68;53.80
28701;BME280;15877;52.344;16.790;2023-07-24T00:17:09;99824.38;;;21.71;54.22
28701;BME280;15877;52.344;16.790;2023-07-24T00:19:43;99821.52;;;21.69;53.53
28701;BME280;15877;52.344;16.790;2023-07-24T00:22:17;99827.36;;;21.68;53.15
28701;BME280;15877;52.344;16.790;2023-07-24T00:24:50;99829.13;;;21.66;53.49
28701;BME280;15877;52.344;16.790;2023-07-24T00:27:23;99830.49;;;21.59;54.56
28701;BME280;15877;52.344;16.790;2023-07-24T00:29:57;99833.08;;;21.55;54.84
28701;BME280;15877;52.344;16.790;2023-07-24T00:32:31;99834.78;;;21.49;54.95
28701;BME280;15877;52.344;16.790;2023-07-24T00:35:07;99833.02;;;21.46;54.47
28701;BME280;15877;52.344;16.790;2023-07-24T00:37:40;99829.52;;;21.44;54.85
28701;BME280;15877;52.344;16.790;2023-07-24T00:40:13;99829.45;;;21.44;55.07
28701;BME280;15877;52.344;16.790;2023-07-24T00:42:49;99833.73;;;21.42;55.09
28701;BME280;15877;52.344;16.790;2023-07-24T00:45:21;99831.10;;;21.38;54.92
28701;BME280;15877;52.344;16.790;2023-07-24T00:47:53;99833.49;;;21.37;54.87
28701;BME280;15877;52.344;16.790;2023-07-24T00:50:27;99829.05;;;21.33;55.28
28701;BME280;15877;52.344;16.790;2023-07-24T00:53:00;99819.40;;;21.22;55.40
28701;BME280;15877;52.344;16.790;2023-07-24T00:55:33;99827.17;;;21.27;55.11
28701;BME280;15877;52.344;16.790;2023-07-24T00:58:05;99821.67;;;21.25;55.24
28701;BME280;15877;52.344;16.790;2023-07-24T01:00:42;99811.99;;;21.24;55.12
28701;BME280;15877;52.344;16.790;2023-07-24T01:03:14;99811.05;;;21.21;56.08
28701;BME280;15877;52.344;16.790;2023-07-24T01:05:47;99814.36;;;21.21;56.78
28701;BME280;15877;52.344;16.790;2023-07-24T01:08:19;99809.80;;;21.20;56.61
28701;BME280;15877;52.344;16.790;2023-07-24T01:10:52;99812.13;;;21.20;56.76
28701;BME280;15877;52.344;16.790;2023-07-24T01:13:27;99819.48;;;21.20;56.62
28701;BME280;15877;52.344;16.790;2023-07-24T01:16:08;99807.80;;;21.16;56.41
28701;BME280;15877;52.344;16.790;2023-07-24T01:18:44;99811.93;;;21.21;56.35
28701;BME280;15877;52.344;16.790;2023-07-24T01:21:24;99818.05;;;21.24;56.72
28701;BME280;15877;52.344;16.790;2023-07-24T01:24:08;99821.81;;;21.26;56.60
28701;BME280;15877;52.344;16.790;2023-07-24T01:26:46;99815.81;;;21.28;56.61
28701;BME280;15877;52.344;16.790;2023-07-24T01:29:19;99811.66;;;21.30;56.65
28701;BME280;15877;52.344;16.790;2023-07-24T01:31:53;99808.15;;;21.31;56.84
28701;BME280;15877;52.344;16.790;2023-07-24T01:34:26;99808.52;;;21.32;57.24
28701;BME280;15877;52.344;16.790;2023-07-24T01:36:58;99808.70;;;21.34;56.86
28701;BME280;15877;52.344;16.790;2023-07-24T01:39:31;99810.89;;;21.36;56.72
28701;BME280;15877;52.344;16.790;2023-07-24T01:42:04;99806.15;;;21.38;56.58
28701;BME280;15877;52.344;16.790;2023-07-24T01:44:37;99801.63;;;21.38;56.52
28701;BME280;15877;52.344;16.790;2023-07-24T01:47:10;99800.31;;;21.41;56.19
28701;BME280;15877;52.344;16.790;2023-07-24T01:49:42;99800.73;;;21.43;56.03
28701;BME280;15877;52.344;16.790;2023-07-24T01:52:17;99800.20;;;21.45;56.10
28701;BME280;15877;52.344;16.790;2023-07-24T01:54:49;99798.09;;;21.45;56.59
28701;BME280;15877;52.344;16.790;2023-07-24T01:57:40;99796.48;;;21.48;57.24
28701;BME280;15877;52.344;16.790;2023-07-24T02:00:13;99794.05;;;21.50;57.23
28701;BME280;15877;52.344;16.790;2023-07-24T02:02:46;99794.96;;;21.52;57.68
28701;BME280;15877;52.344;16.790;2023-07-24T02:05:19;99798.50;;;21.52;58.16
28701;BME280;15877;52.344;16.790;2023-07-24T02:07:51;99793.37;;;21.51;57.77
28701;BME280;15877;52.344;16.790;2023-07-24T02:10:24;99792.42;;;21.53;57.98
28701;BME280;15877;52.344;16.790;2023-07-24T02:12:56;99787.22;;;21.52;58.58
28701;BME280;15877;52.344;16.790;2023-07-24T02:15:29;99785.32;;;21.50;58.54
28701;BME280;15877;52.344;16.790;2023-07-24T02:18:01;99784.25;;;21.53;58.49
28701;BME280;15877;52.344;16.790;2023-07-24T02:20:34;99783.62;;;21.55;58.04
28701;BME280;15877;52.344;16.790;2023-07-24T02:23:08;99783.05;;;21.55;58.29
28701;BME280;15877;52.344;16.790;2023-07-24T02:25:41;99784.50;;;21.56;59.01
28701;BME280;15877;52.344;16.790;2023-07-24T02:28:14;99780.73;;;21.57;59.20
28701;BME280;15877;52.344;16.790;2023-07-24T02:30:47;99775.11;;;21.59;59.21
28701;BME280;15877;52.344;16.790;2023-07-24T02:33:20;99772.37;;;21.61;59.32
28701;BME280;15877;52.344;16.790;2023-07-24T02:35:54;99764.92;;;21.54;59.23
28701;BME280;15877;52.344;16.790;2023-07-24T02:38:27;99773.57;;;21.59;59.39
28701;BME280;15877;52.344;16.790;2023-07-24T02:40:59;99771.52;;;21.60;59.62
28701;BME280;15877;52.344;16.790;2023-07-24T02:43:32;99775.77;;;21.61;59.48
28701;BME280;15877;52.344;16.790;2023-07-24T02:46:05;99771.67;;;21.62;59.63
28701;BME280;15877;52.344;16.790;2023-07-24T02:48:37;99769.69;;;21.63;59.77
28701;BME280;15877;52.344;16.790;2023-07-24T02:51:10;99772.05;;;21.63;59.78
28701;BME280;15877;52.344;16.790;2023-07-24T02:53:43;99770.69;;;21.65;59.87
28701;BME280;15877;52.344;16.790;2023-07-24T02:56:15;99764.15;;;21.65;59.16
28701;BME280;15877;52.344;16.790;2023-07-24T02:58:49;99766.69;;;21.69;59.03
28701;BME280;15877;52.344;16.790;2023-07-24T03:01:39;99759.51;;;21.69;58.90
28701;BME280;15877;52.344;16.790;2023-07-24T03:04:11;99755.64;;;21.70;58.40
28701;BME280;15877;52.344;16.790;2023-07-24T03:06:44;99753.61;;;21.71;58.36
28701;BME280;15877;52.344;16.790;2023-07-24T03:09:16;99755.54;;;21.72;58.16
28701;BME280;15877;52.344;16.790;2023-07-24T03:11:49;99751.70;;;21.72;58.33
28701;BME280;15877;52.344;16.790;2023-07-24T03:14:22;99740.91;;;21.71;58.07
28701;BME280;15877;52.344;16.790;2023-07-24T03:16:55;99741.67;;;21.68;56.96
28701;BME280;15877;52.344;16.790;2023-07-24T03:19:27;99741.05;;;21.75;56.10
28701;BME280;15877;52.344;16.790;2023-07-24T03:22:00;99738.27;;;21.79;56.11
28701;BME280;15877;52.344;16.790;2023-07-24T03:24:33;99735.88;;;21.83;56.50
28701;BME280;15877;52.344;16.790;2023-07-24T03:27:06;99731.59;;;21.83;55.82
28701;BME280;15877;52.344;16.790;2023-07-24T03:29:39;99732.36;;;21.87;55.28
28701;BME280;15877;52.344;16.790;2023-07-24T03:32:12;99734.68;;;21.89;55.20
28701;BME280;15877;52.344;16.790;2023-07-24T03:34:45;99737.67;;;21.94;55.31
28701;BME280;15877;52.344;16.790;2023-07-24T03:37:19;99734.61;;;21.98;55.24
28701;BME280;15877;52.344;16.790;2023-07-24T03:39:53;99736.69;;;22.01;55.47
28701;BME280;15877;52.344;16.790;2023-07-24T03:42:28;99737.98;;;22.01;56.12
28701;BME280;15877;52.344;16.790;2023-07-24T03:45:01;99741.42;;;22.09;55.75
28701;BME280;15877;52.344;16.790;2023-07-24T03:47:34;99739.54;;;22.09;56.23
28701;BME280;15877;52.344;16.790;2023-07-24T03:50:08;99732.65;;;22.05;56.17
28701;BME280;15877;52.344;16.790;2023-07-24T03:52:41;99730.33;;;22.05;56.33
28701;BME280;15877;52.344;16.790;2023-07-24T03:55:14;99733.45;;;22.12;55.85
28701;BME280;15877;52.344;16.790;2023-07-24T03:57:46;99736.04;;;22.12;56.03
28701;BME280;15877;52.344;16.790;2023-07-24T04:00:19;99732.26;;;22.14;55.88
28701;BME280;15877;52.344;16.790;2023-07-24T04:02:52;99728.90;;;22.15;55.85
28701;BME280;15877;52.344;16.790;2023-07-24T04:05:24;99722.42;;;22.15;56.06
28701;BME280;15877;52.344;16.790;2023-07-24T04:07:57;99713.05;;;22.15;55.75
28701;BME280;15877;52.344;16.790;2023-07-24T04:10:30;99715.13;;;22.16;55.62
28701;BME280;15877;52.344;16.790;2023-07-24T04:13:04;99721.29;;;22.11;55.26
28701;BME280;15877;52.344;16.790;2023-07-24T04:15:39;99721.02;;;22.16;55.37
28701;BME280;15877;52.344;16.790;2023-07-24T04:18:13;99719.77;;;22.22;55.20
28701;BME280;15877;52.344;16.790;2023-07-24T04:20:45;99719.08;;;22.23;55.38
28701;BME280;15877;52.344;16.790;2023-07-24T04:23:18;99720.80;;;22.24;55.41
28701;BME280;15877;52.344;16.790;2023-07-24T04:25:52;99719.71;;;22.26;55.38
28701;BME280;15877;52.344;16.790;2023-07-24T04:28:24;99720.46;;;22.25;55.45
28701;BME280;15877;52.344;16.790;2023-07-24T04:31:00;99722.70;;;22.26;55.37
28701;BME280;15877;52.344;16.790;2023-07-24T04:33:33;99725.52;;;22.28;55.35
28701;BME280;15877;52.344;16.790;2023-07-24T04:36:06;99721.91;;;22.31;55.19
28701;BME280;15877;52.344;16.790;2023-07-24T04:38:39;99725.96;;;22.33;55.01
28701;BME280;15877;52.344;16.790;2023-07-24T04:41:11;99726.37;;;22.29;55.04
28701;BME280;15877;52.344;16.790;2023-07-24T04:43:43;99731.05;;;22.20;55.54
28701;BME280;15877;52.344;16.790;2023-07-24T04:46:16;99723.58;;;22.26;55.44
28701;BME280;15877;52.344;16.790;2023-07-24T04:48:50;99721.98;;;22.16;56.49
28701;BME280;15877;52.344;16.790;2023-07-24T04:51:23;99733.48;;;22.21;56.21
28701;BME280;15877;52.344;16.790;2023-07-24T04:53:56;99737.48;;;22.26;55.80
28701;BME280;15877;52.344;16.790;2023-07-24T04:56:28;99740.20;;;22.26;56.00
28701;BME280;15877;52.344;16.790;2023-07-24T04:59:02;99745.98;;;22.25;56.04
28701;BME280;15877;52.344;16.790;2023-07-24T05:01:35;99768.02;;;22.27;56.35
28701;BME280;15877;52.344;16.790;2023-07-24T05:04:07;99755.99;;;22.26;56.28
28701;BME280;15877;52.344;16.790;2023-07-24T05:06:40;99741.98;;;22.16;56.98
28701;BME280;15877;52.344;16.790;2023-07-24T05:09:13;99743.35;;;22.18;57.57
28701;BME280;15877;52.344;16.790;2023-07-24T05:11:46;99751.73;;;22.25;57.62
28701;BME280;15877;52.344;16.790;2023-07-24T05:14:20;99742.16;;;22.26;57.41
28701;BME280;15877;52.344;16.790;2023-07-24T05:16:53;99732.36;;;22.22;58.61
28701;BME280;15877;52.344;16.790;2023-07-24T05:19:25;99725.11;;;22.20;58.80
28701;BME280;15877;52.344;16.790;2023-07-24T05:21:57;99722.22;;;22.21;58.09
28701;BME280;15877;52.344;16.790;2023-07-24T05:24:30;99720.06;;;22.22;57.22
28701;BME280;15877;52.344;16.790;2023-07-24T05:27:04;99715.23;;;22.24;57.40
28701;BME280;15877;52.344;16.790;2023-07-24T05:29:36;99719.98;;;22.25;57.96
28701;BME280;15877;52.344;16.790;2023-07-24T05:32:09;99709.16;;;22.27;57.91
28701;BME280;15877;52.344;16.790;2023-07-24T05:34:42;99711.95;;;22.34;57.55
28701;BME280;15877;52.344;16.790;2023-07-24T05:37:19;99710.83;;;22.40;56.98
28701;BME280;15877;52.344;16.790;2023-07-24T05:39:52;99710.63;;;22.41;57.16
28701;BME280;15877;52.344;16.790;2023-07-24T05:42:25;99710.89;;;22.47;56.22
28701;BME280;15877;52.344;16.790;2023-07-24T05:44:58;99709.58;;;22.52;56.28
28701;BME280;15877;52.344;16.790;2023-07-24T05:47:32;99705.85;;;22.56;56.29
28701;BME280;15877;52.344;16.790;2023-07-24T05:50:07;99707.70;;;22.59;56.14
28701;BME280;15877;52.344;16.790;2023-07-24T05:52:41;99707.63;;;22.61;55.92
28701;BME280;15877;52.344;16.790;2023-07-24T05:55:15;99701.27;;;22.64;55.82
28701;BME280;15877;52.344;16.790;2023-07-24T05:57:49;99701.73;;;22.65;55.50
28701;BME280;15877;52.344;16.790;2023-07-24T06:00:22;99685.59;;;22.66;55.40
28701;BME280;15877;52.344;16.790;2023-07-24T06:02:54;99696.04;;;22.72;55.63
28701;BME280;15877;52.344;16.790;2023-07-24T06:05:27;99688.68;;;22.78;55.59
28701;BME280;15877;52.344;16.790;2023-07-24T06:08:00;99681.52;;;22.81;54.96
28701;BME280;15877;52.344;16.790;2023-07-24T06:10:33;99683.05;;;22.89;54.90
28701;BME280;15877;52.344;16.790;2023-07-24T06:13:05;99683.58;;;22.92;54.70
28701;BME280;15877;52.344;16.790;2023-07-24T06:15:38;99677.36;;;22.95;54.80
28701;BME280;15877;52.344;16.790;2023-07-24T06:18:10;99679.29;;;23.02;54.59
28701;BME280;15877;52.344;16.790;2023-07-24T06:20:42;99678.98;;;23.02;54.61
28701;BME280;15877;52.344;16.790;2023-07-24T06:23:14;99675.27;;;23.09;54.52
28701;BME280;15877;52.344;16.790;2023-07-24T06:25:47;99671.30;;;23.12;54.70
28701;BME280;15877;52.344;16.790;2023-07-24T06:28:20;99671.57;;;23.20;53.85
28701;BME280;15877;52.344;16.790;2023-07-24T06:30:54;99668.90;;;23.22;53.73
28701;BME280;15877;52.344;16.790;2023-07-24T06:33:26;99670.33;;;23.29;53.57
28701;BME280;15877;52.344;16.790;2023-07-24T06:35:59;99668.58;;;23.33;53.89
28701;BME280;15877;52.344;16.790;2023-07-24T06:38:31;99670.60;;;23.36;54.20
28701;BME280;15877;52.344;16.790;2023-07-24T06:41:04;99671.52;;;23.43;53.96
28701;BME280;15877;52.344;16.790;2023-07-24T06:43:36;99661.05;;;23.46;53.78
28701;BME280;15877;52.344;16.790;2023-07-24T06:46:09;99654.53;;;23.57;53.15
28701;BME280;15877;52.344;16.790;2023-07-24T06:48:41;99654.27;;;23.60;53.06
28701;BME280;15877;52.344;16.790;2023-07-24T06:51:13;99645.48;;;23.65;52.95
28701;BME280;15877;52.344;16.790;2023-07-24T06:53:45;99644.02;;;23.73;53.22
28701;BME280;15877;52.344;16.790;2023-07-24T06:56:18;99645.52;;;23.78;53.09
28701;BME280;15877;52.344;16.790;2023-07-24T06:58:51;99641.95;;;23.82;52.83
28701;BME280;15877;52.344;16.790;2023-07-24T07:01:23;99634.85;;;23.88;53.03
28701;BME280;15877;52.344;16.790;2023-07-24T07:03:56;99635.52;;;23.93;52.87
28701;BME280;15877;52.344;16.790;2023-07-24T07:06:29;99634.14;;;23.97;52.76
28701;BME280;15877;52.344;16.790;2023-07-24T07:09:01;99631.91;;;24.05;52.66
28701;BME280;15877;52.344;16.790;2023-07-24T07:11:35;99632.75;;;24.06;52.74
28701;BME280;15877;52.344;16.790;2023-07-24T07:14:07;99623.73;;;24.11;52.63
28701;BME280;15877;52.344;16.790;2023-07-24T07:16:40;99630.20;;;24.25;52.30
28701;BME280;15877;52.344;16.790;2023-07-24T07:19:12;99631.91;;;24.32;52.08
28701;BME280;15877;52.344;16.790;2023-07-24T07:21:45;99626.71;;;24.37;52.37
28701;BME280;15877;52.344;16.790;2023-07-24T07:24:18;99626.34;;;24.48;52.13
28701;BME280;15877;52.344;16.790;2023-07-24T07:26:50;99616.54;;;24.53;52.05
28701;BME280;15877;52.344;16.790;2023-07-24T07:29:23;99618.02;;;24.61;51.78
28701;BME280;15877;52.344;16.790;2023-07-24T07:31:56;99613.52;;;24.77;51.49
28701;BME280;15877;52.344;16.790;2023-07-24T07:34:28;99614.79;;;24.80;51.78
28701;BME280;15877;52.344;16.790;2023-07-24T07:37:00;99605.70;;;24.71;51.30
28701;BME280;15877;52.344;16.790;2023-07-24T07:39:33;99601.70;;;24.70;51.16
28701;BME280;15877;52.344;16.790;2023-07-24T07:42:06;99619.08;;;24.82;51.09
28701;BME280;15877;52.344;16.790;2023-07-24T07:44:48;99622.37;;;24.77;51.34
28701;BME280;15877;52.344;16.790;2023-07-24T07:47:21;99621.70;;;24.86;51.26
28701;BME280;15877;52.344;16.790;2023-07-24T07:49:53;99617.09;;;24.96;51.10
28701;BME280;15877;52.344;16.790;2023-07-24T07:52:26;99619.58;;;25.01;51.17
28701;BME280;15877;52.344;16.790;2023-07-24T07:54:58;99620.67;;;25.19;49.76
28701;BME280;15877;52.344;16.790;2023-07-24T07:57:31;99616.16;;;25.14;50.05
28701;BME280;15877;52.344;16.790;2023-07-24T08:00:05;99618.66;;;25.12;50.58
28701;BME280;15877;52.344;16.790;2023-07-24T08:02:38;99616.34;;;25.15;50.34
28701;BME280;15877;52.344;16.790;2023-07-24T08:05:12;99568.98;;;25.00;50.20
28701;BME280;15877;52.344;16.790;2023-07-24T08:07:51;99614.00;;;25.31;49.79
28701;BME280;15877;52.344;16.790;2023-07-24T08:10:23;99609.25;;;25.28;49.99
28701;BME280;15877;52.344;16.790;2023-07-24T08:12:56;99602.98;;;25.30;49.71
28701;BME280;15877;52.344;16.790;2023-07-24T08:15:30;99608.72;;;25.45;49.91
28701;BME280;15877;52.344;16.790;2023-07-24T08:18:06;99609.54;;;25.57;49.41
28701;BME280;15877;52.344;16.790;2023-07-24T08:20:39;99608.21;;;25.66;49.24
28701;BME280;15877;52.344;16.790;2023-07-24T08:23:11;99606.44;;;25.78;48.89
28701;BME280;15877;52.344;16.790;2023-07-24T08:25:52;99604.80;;;25.88;48.75
28701;BME280;15877;52.344;16.790;2023-07-24T08:28:25;99593.94;;;25.95;48.04
28701;BME280;15877;52.344;16.790;2023-07-24T08:31:00;99593.75;;;26.02;48.05
28701;BME280;15877;52.344;16.790;2023-07-24T08:33:37;99592.52;;;26.05;48.12
28701;BME280;15877;52.344;16.790;2023-07-24T08:36:10;99595.07;;;26.06;48.64
28701;BME280;15877;52.344;16.790;2023-07-24T08:38:43;99594.93;;;26.13;47.98
28701;BME280;15877;52.344;16.790;2023-07-24T08:41:16;99597.84;;;26.10;47.69
28701;BME280;15877;52.344;16.790;2023-07-24T08:43:48;99601.14;;;26.18;47.80
28701;BME280;15877;52.344;16.790;2023-07-24T08:46:23;99602.81;;;26.25;47.37
28701;BME280;15877;52.344;16.790;2023-07-24T08:48:57;99604.02;;;26.29;47.11
28701;BME280;15877;52.344;16.790;2023-07-24T08:51:30;99606.23;;;26.33;47.08
28701;BME280;15877;52.344;16.790;2023-07-24T08:54:04;99605.14;;;26.45;46.91
28701;BME280;15877;52.344;16.790;2023-07-24T08:56:37;99607.08;;;26.53;46.72
28701;BME280;15877;52.344;16.790;2023-07-24T08:59:12;99601.42;;;26.53;46.33
28701;BME280;15877;52.344;16.790;2023-07-24T09:01:44;99589.52;;;26.50;45.99
28701;BME280;15877;52.344;16.790;2023-07-24T09:04:16;99596.65;;;26.61;45.84
28701;BME280;15877;52.344;16.790;2023-07-24T09:06:49;99560.50;;;26.57;45.90
28701;BME280;15877;52.344;16.790;2023-07-24T09:09:22;99592.56;;;26.79;45.52
28701;BME280;15877;52.344;16.790;2023-07-24T09:11:54;99593.11;;;26.88;45.60
28701;BME280;15877;52.344;16.790;2023-07-24T09:14:30;99591.77;;;26.95;45.66
28701;BME280;15877;52.344;16.790;2023-07-24T09:17:07;99578.84;;;26.97;45.12
28701;BME280;15877;52.344;16.790;2023-07-24T09:19:40;99565.34;;;26.95;45.42
28701;BME280;15877;52.344;16.790;2023-07-24T09:22:15;99567.05;;;27.07;44.98
28701;BME280;15877;52.344;16.790;2023-07-24T09:24:55;99574.86;;;27.23;45.10
28701;BME280;15877;52.344;16.790;2023-07-24T09:27:29;99569.34;;;27.31;44.99
28701;BME280;15877;52.344;16.790;2023-07-24T09:30:13;99566.63;;;27.42;44.84
28701;BME280;15877;52.344;16.790;2023-07-24T09:32:52;99563.14;;;27.54;44.62
28701;BME280;15877;52.344;16.790;2023-07-24T09:35:25;99552.30;;;27.58;44.15
28701;BME280;15877;52.344;16.790;2023-07-24T09:38:07;99554.73;;;27.63;43.78
28701;BME280;15877;52.344;16.790;2023-07-24T09:40:43;99551.41;;;27.80;43.67
28701;BME280;15877;52.344;16.790;2023-07-24T09:43:21;99554.29;;;27.73;43.32
28701;BME280;15877;52.344;16.790;2023-07-24T09:45:58;99550.37;;;27.81;42.89
28701;BME280;15877;52.344;16.790;2023-07-24T09:48:31;99538.92;;;27.94;42.99
28701;BME280;15877;52.344;16.790;2023-07-24T09:51:08;99526.41;;;27.94;42.85
28701;BME280;15877;52.344;16.790;2023-07-24T09:53:47;99523.45;;;28.01;43.13
28701;BME280;15877;52.344;16.790;2023-07-24T09:56:23;99531.66;;;27.95;43.08
28701;BME280;15877;52.344;16.790;2023-07-24T10:04:34;99531.38;;;28.22;42.51
28701;BME280;15877;52.344;16.790;2023-07-24T10:07:07;99534.60;;;28.09;42.05
28701;BME280;15877;52.344;16.790;2023-07-24T10:09:42;99515.03;;;28.16;42.24
28701;BME280;15877;52.344;16.790;2023-07-24T10:12:19;99540.84;;;28.39;41.89
28701;BME280;15877;52.344;16.790;2023-07-24T10:14:52;99533.39;;;28.49;41.74
28701;BME280;15877;52.344;16.790;2023-07-24T10:17:38;99532.45;;;28.54;41.50
28701;BME280;15877;52.344;16.790;2023-07-24T10:20:15;99524.77;;;28.67;41.78
28701;BME280;15877;52.344;16.790;2023-07-24T10:22:48;99530.23;;;28.77;41.20
28701;BME280;15877;52.344;16.790;2023-07-24T10:25:30;99536.04;;;28.75;40.92
28701;BME280;15877;52.344;16.790;2023-07-24T10:28:05;99534.52;;;28.82;40.91
28701;BME280;15877;52.344;16.790;2023-07-24T10:30:39;99526.64;;;28.83;40.37
28701;BME280;15877;52.344;16.790;2023-07-24T10:33:13;99522.14;;;28.70;40.74
28701;BME280;15877;52.344;16.790;2023-07-24T10:35:52;99526.95;;;28.77;41.28
28701;BME280;15877;52.344;16.790;2023-07-24T10:38:34;99528.73;;;28.79;41.40
28701;BME280;15877;52.344;16.790;2023-07-24T10:41:11;99528.05;;;28.70;41.08
28701;BME280;15877;52.344;16.790;2023-07-24T10:43:44;99526.48;;;28.62;40.71
28701;BME280;15877;52.344;16.790;2023-07-24T10:46:20;99526.91;;;28.56;41.19
28701;BME280;15877;52.344;16.790;2023-07-24T10:48:53;99476.25;;;28.10;40.84
28701;BME280;15877;52.344;16.790;2023-07-24T10:51:26;99520.20;;;28.44;41.64
28701;BME280;15877;52.344;16.790;2023-07-24T10:53:59;99517.48;;;28.43;41.07
28701;BME280;15877;52.344;16.790;2023-07-24T10:56:32;99519.27;;;28.38;40.85
28701;BME280;15877;52.344;16.790;2023-07-24T10:59:05;99514.20;;;28.40;41.05
28701;BME280;15877;52.344;16.790;2023-07-24T11:01:38;99514.78;;;28.42;40.63
28701;BME280;15877;52.344;16.790;2023-07-24T11:04:11;99514.70;;;28.37;40.65
28701;BME280;15877;52.344;16.790;2023-07-24T11:06:43;99514.19;;;28.31;40.97
28701;BME280;15877;52.344;16.790;2023-07-24T11:09:16;99509.77;;;28.20;40.94
28701;BME280;15877;52.344;16.790;2023-07-24T11:11:52;99504.09;;;28.05;41.06
28701;BME280;15877;52.344;16.790;2023-07-24T11:14:25;99509.88;;;28.09;41.29
28701;BME280;15877;52.344;16.790;2023-07-24T11:17:15;99508.33;;;28.15;41.49
28701;BME280;15877;52.344;16.790;2023-07-24T11:19:48;99500.13;;;28.29;40.97
28701;BME280;15877;52.344;16.790;2023-07-24T11:22:23;99493.70;;;28.24;41.17
28701;BME280;15877;52.344;16.790;2023-07-24T11:24:56;99497.18;;;28.37;40.99
28701;BME280;15877;52.344;16.790;2023-07-24T11:27:28;99492.02;;;28.33;40.75
28701;BME280;15877;52.344;16.790;2023-07-24T11:30:02;99484.40;;;28.23;41.12
28701;BME280;15877;52.344;16.790;2023-07-24T11:32:34;99481.41;;;28.12;41.14
28701;BME280;15877;52.344;16.790;2023-07-24T11:35:08;99487.51;;;28.02;41.39
28701;BME280;15877;52.344;16.790;2023-07-24T11:37:42;99479.47;;;28.10;41.49
28701;BME280;15877;52.344;16.790;2023-07-24T11:40:18;99470.88;;;28.20;41.74
28701;BME280;15877;52.344;16.790;2023-07-24T11:42:51;99466.61;;;28.32;41.63
28701;BME280;15877;52.344;16.790;2023-07-24T11:45:23;99455.83;;;28.28;41.30
28701;BME280;15877;52.344;16.790;2023-07-24T11:47:56;99462.66;;;28.39;41.52
28701;BME280;15877;52.344;16.790;2023-07-24T11:50:29;99459.60;;;28.40;41.00
28701;BME280;15877;52.344;16.790;2023-07-24T11:53:01;99450.13;;;28.37;41.12
28701;BME280;15877;52.344;16.790;2023-07-24T11:55:34;99449.70;;;28.43;41.22
28701;BME280;15877;52.344;16.790;2023-07-24T11:58:08;99443.50;;;28.47;41.10
28701;BME280;15877;52.344;16.790;2023-07-24T12:00:48;99436.85;;;28.61;40.23
28701;BME280;15877;52.344;16.790;2023-07-24T12:03:24;99434.85;;;28.76;40.09
28701;BME280;15877;52.344;16.790;2023-07-24T12:05:57;99429.48;;;28.84;39.78
28701;BME280;15877;52.344;16.790;2023-07-24T12:08:34;99430.52;;;28.95;39.86
28701;BME280;15877;52.344;16.790;2023-07-24T12:11:18;99417.11;;;28.97;39.36
28701;BME280;15877;52.344;16.790;2023-07-24T12:13:51;99415.69;;;29.03;39.29
28701;BME280;15877;52.344;16.790;2023-07-24T12:16:25;99414.08;;;29.04;39.39
28701;BME280;15877;52.344;16.790;2023-07-24T12:19:16;99405.39;;;29.10;39.23
28701;BME280;15877;52.344;16.790;2023-07-24T12:21:49;99403.23;;;29.22;39.11
28701;BME280;15877;52.344;16.790;2023-07-24T12:24:22;99397.80;;;29.30;38.14
28701;BME280;15877;52.344;16.790;2023-07-24T12:26:55;99395.66;;;29.30;38.38
28701;BME280;15877;52.344;16.790;2023-07-24T12:29:27;99387.77;;;29.35;38.38
28701;BME280;15877;52.344;16.790;2023-07-24T12:43:30;99352.87;;;29.76;37.81
28701;BME280;15877;52.344;16.790;2023-07-24T12:46:03;99356.71;;;29.79;37.71
28701;BME280;15877;52.344;16.790;2023-07-24T12:48:35;99354.48;;;29.73;37.39
28701;BME280;15877;52.344;16.790;2023-07-24T12:51:08;99353.12;;;29.74;37.25
28701;BME280;15877;52.344;16.790;2023-07-24T12:53:41;99352.34;;;29.79;37.73
28701;BME280;15877;52.344;16.790;2023-07-24T12:56:20;99352.08;;;29.86;37.61
28701;BME280;15877;52.344;16.790;2023-07-24T12:58:52;99351.27;;;30.06;37.85
28701;BME280;15877;52.344;16.790;2023-07-24T13:01:25;99341.51;;;30.22;36.54
28701;BME280;15877;52.344;16.790;2023-07-24T13:04:00;99336.06;;;30.36;35.94
28701;BME280;15877;52.344;16.790;2023-07-24T13:06:33;99342.34;;;30.60;35.78
28701;BME280;15877;52.344;16.790;2023-07-24T13:09:07;99338.95;;;30.73;35.30
28701;BME280;15877;52.344;16.790;2023-07-24T13:11:39;99333.02;;;30.84;35.25
28701;BME280;15877;52.344;16.790;2023-07-24T13:14:12;99331.55;;;30.97;35.22
28701;BME280;15877;52.344;16.790;2023-07-24T13:16:44;99327.75;;;30.89;34.61
28701;BME280;15877;52.344;16.790;2023-07-24T13:19:17;99329.30;;;31.00;34.58
28701;BME280;15877;52.344;16.790;2023-07-24T13:21:51;99315.26;;;31.18;34.86
28701;BME280;15877;52.344;16.790;2023-07-24T13:24:24;99301.34;;;31.23;34.70
28701;BME280;15877;52.344;16.790;2023-07-24T13:26:56;99323.30;;;31.36;34.23
28701;BME280;15877;52.344;16.790;2023-07-24T13:29:29;99324.05;;;31.29;33.77
28701;BME280;15877;52.344;16.790;2023-07-24T13:32:02;99321.70;;;31.11;34.22
28701;BME280;15877;52.344;16.790;2023-07-24T13:34:34;99316.27;;;30.76;33.72
28701;BME280;15877;52.344;16.790;2023-07-24T13:37:08;99312.57;;;30.64;33.82
28701;BME280;15877;52.344;16.790;2023-07-24T13:39:40;99306.42;;;30.95;33.67
28701;BME280;15877;52.344;16.790;2023-07-24T13:42:13;99292.76;;;31.05;33.37